createdAt,value
2018-11-12T00:01:01.176Z,65.69
2018-11-12T00:03:29.245Z,65.20
2018-11-12T00:05:57.373Z,65.35
2018-11-12T00:08:25.508Z,65.36
2018-11-12T00:10:53.588Z,65.70
2018-11-12T00:19:03.246Z,64.56
2018-11-12T00:21:31.327Z,65.06
2018-11-12T00:23:59.441Z,65.13
2018-11-12T00:26:27.527Z,65.10
2018-11-12T00:28:55.661Z,65.37
2018-11-12T00:31:23.798Z,65.05
2018-11-12T00:33:51.897Z,65.67
2018-11-12T00:36:20.077Z,65.55
2018-11-12T00:38:48.153Z,65.78
2018-11-12T00:41:16.226Z,66.04
2018-11-12T00:43:44.318Z,66.13
2018-11-12T00:46:12.393Z,66.43
2018-11-12T00:48:41.558Z,66.37
2018-11-12T00:51:09.618Z,65.88
2018-11-12T00:53:37.746Z,65.93
2018-11-12T00:56:06.314Z,65.63
2018-11-12T00:58:34.417Z,65.52
2018-11-12T01:01:02.963Z,65.13
2018-11-12T01:03:31.023Z,65.14
2018-11-12T01:05:59.088Z,65.09
2018-11-12T01:08:27.212Z,65.08
2018-11-12T01:10:55.258Z,64.24
2018-11-12T01:13:23.382Z,64.48
2018-11-12T01:15:51.436Z,64.64
2018-11-12T01:18:19.473Z,64.81
2018-11-12T01:20:47.525Z,64.67
2018-11-12T01:23:15.569Z,64.98
2018-11-12T01:25:43.782Z,64.26
2018-11-12T01:28:11.902Z,64.07
2018-11-12T01:30:39.997Z,63.78
2018-11-12T01:33:08.100Z,63.73
2018-11-12T01:35:36.169Z,63.56
2018-11-12T01:38:04.230Z,63.18
2018-11-12T01:40:32.362Z,63.17
2018-11-12T01:43:00.721Z,63.34
2018-11-12T01:45:28.850Z,63.79
2018-11-12T01:47:56.917Z,64.14
2018-11-12T01:50:25.006Z,64.18
2018-11-12T01:52:53.129Z,64.53
2018-11-12T01:55:21.244Z,64.45
2018-11-12T01:57:49.318Z,64.78
2018-11-12T02:00:20.055Z,64.82
2018-11-12T02:02:49.514Z,64.66
2018-11-12T02:05:18.070Z,64.91
2018-11-12T02:07:46.177Z,64.61
2018-11-12T02:10:15.622Z,64.61
2018-11-12T02:12:43.785Z,65.14
2018-11-12T02:15:14.026Z,64.79
2018-11-12T02:17:42.908Z,64.91
2018-11-12T02:20:12.575Z,64.91
2018-11-12T02:22:41.132Z,64.89
2018-11-12T02:25:10.322Z,65.06
2018-11-12T02:27:38.493Z,64.68
2018-11-12T02:30:09.864Z,64.53
2018-11-12T02:32:37.951Z,64.76
2018-11-12T02:35:06.050Z,64.45
2018-11-12T02:37:34.553Z,64.29
2018-11-12T02:40:02.683Z,64.33
2018-11-12T02:42:30.774Z,64.49
2018-11-12T02:44:58.878Z,64.51
2018-11-12T02:47:26.981Z,64.41
2018-11-12T02:49:55.053Z,64.38
2018-11-12T02:52:23.153Z,64.63
2018-11-12T02:54:51.210Z,64.64
2018-11-12T02:57:19.279Z,64.96
2018-11-12T02:59:47.358Z,65.04
2018-11-12T03:02:15.501Z,65.04
2018-11-12T03:04:43.571Z,64.99
2018-11-12T03:07:11.727Z,64.81
2018-11-12T03:09:39.990Z,64.67
2018-11-12T03:12:08.054Z,64.71
2018-11-12T03:14:36.150Z,65.09
2018-11-12T03:17:04.261Z,64.84
2018-11-12T03:19:32.354Z,64.77
2018-11-12T03:22:00.421Z,64.74
2018-11-12T03:24:28.527Z,64.63
2018-11-12T03:26:56.682Z,64.43
2018-11-12T03:29:24.778Z,64.18
2018-11-12T03:31:52.826Z,64.31
2018-11-12T03:34:20.950Z,64.21
2018-11-12T03:36:48.995Z,64.04
2018-11-12T03:39:17.092Z,64.21
2018-11-12T03:41:45.157Z,63.94
2018-11-12T03:44:13.268Z,64.04
2018-11-12T03:46:41.338Z,64.24
2018-11-12T03:49:09.462Z,64.14
2018-11-12T03:51:37.585Z,64.01
2018-11-12T03:54:05.811Z,63.43
2018-11-12T03:56:33.880Z,63.25
2018-11-12T03:59:01.943Z,62.95
2018-11-12T04:01:35.369Z,62.96
2018-11-12T04:04:03.445Z,63.31
2018-11-12T04:06:31.488Z,62.92
2018-11-12T04:08:59.556Z,62.61
2018-11-12T04:11:27.681Z,63.02
2018-11-12T04:13:55.763Z,63.13
2018-11-12T04:16:23.830Z,62.97
2018-11-12T04:18:51.950Z,63.22
2018-11-12T04:21:20.054Z,62.58
2018-11-12T04:23:48.122Z,62.50
2018-11-12T04:26:16.194Z,62.47
2018-11-12T04:28:44.314Z,62.25
2018-11-12T04:31:12.637Z,62.75
2018-11-12T04:33:40.754Z,62.42
2018-11-12T04:36:08.814Z,62.56
2018-11-12T04:38:36.949Z,63.08
2018-11-12T04:41:05.353Z,62.89
2018-11-12T04:43:33.418Z,62.68
2018-11-12T04:46:01.525Z,63.07
2018-11-12T04:48:29.617Z,63.16
2018-11-12T04:50:57.681Z,63.23
2018-11-12T04:53:25.803Z,63.18
2018-11-12T04:55:53.842Z,62.66
2018-11-12T04:58:21.908Z,62.65
2018-11-12T05:00:49.977Z,62.96
2018-11-12T05:03:18.056Z,63.29
2018-11-12T05:05:46.114Z,62.90
2018-11-12T05:08:14.223Z,63.16
2018-11-12T05:10:42.297Z,63.06
2018-11-12T05:13:10.448Z,62.53
2018-11-12T05:15:38.534Z,61.77
2018-11-12T05:18:06.631Z,61.77
2018-11-12T05:20:34.686Z,62.00
2018-11-12T05:23:02.737Z,62.35
2018-11-12T05:25:30.810Z,62.83
2018-11-12T05:27:58.876Z,62.40
2018-11-12T05:30:28.777Z,62.47
2018-11-12T05:32:57.430Z,62.52
2018-11-12T05:35:26.804Z,63.00
2018-11-12T05:37:54.923Z,62.81
2018-11-12T05:40:30.047Z,62.72
2018-11-12T05:42:58.502Z,62.43
2018-11-12T05:45:27.790Z,62.82
2018-11-12T05:47:55.870Z,62.95
2018-11-12T05:50:25.375Z,63.49
2018-11-12T05:52:54.978Z,63.00
2018-11-12T05:55:24.339Z,63.46
2018-11-12T05:57:52.457Z,63.69
2018-11-12T06:00:23.951Z,64.31
2018-11-12T06:02:52.061Z,64.44
2018-11-12T06:05:20.122Z,64.29
2018-11-12T06:07:48.241Z,64.21
2018-11-12T06:10:17.832Z,63.87
2018-11-12T06:12:46.351Z,63.94
2018-11-12T06:15:14.704Z,63.59
2018-11-12T06:17:43.603Z,64.05
2018-11-12T06:20:14.468Z,64.05
2018-11-12T06:22:42.536Z,63.66
2018-11-12T06:25:12.005Z,63.83
2018-11-12T06:27:40.082Z,63.75
2018-11-12T06:30:13.565Z,63.86
2018-11-12T06:32:41.640Z,64.46
2018-11-12T06:35:11.075Z,64.10
2018-11-12T06:37:39.132Z,64.36
2018-11-12T06:40:09.165Z,65.20
2018-11-12T06:42:38.008Z,65.29
2018-11-12T06:45:09.165Z,65.43
2018-11-12T06:47:37.243Z,65.56
2018-11-12T06:50:07.256Z,65.94
2018-11-12T06:52:35.346Z,65.70
2018-11-12T06:55:03.418Z,65.68
2018-11-12T06:57:31.578Z,65.49
2018-11-12T06:59:59.648Z,65.38
2018-11-12T07:02:28.961Z,65.03
2018-11-12T07:04:57.072Z,64.89
2018-11-12T07:07:25.189Z,64.67
2018-11-12T07:09:53.338Z,64.61
2018-11-12T07:12:21.428Z,64.15
2018-11-12T07:14:49.651Z,64.34
2018-11-12T07:17:17.697Z,64.28
2018-11-12T07:19:45.772Z,63.78
2018-11-12T07:22:13.885Z,63.86
2018-11-12T07:24:41.966Z,63.75
2018-11-12T07:27:10.047Z,63.33
2018-11-12T07:29:38.133Z,63.18
2018-11-12T07:32:06.225Z,62.90
2018-11-12T07:34:34.286Z,63.05
2018-11-12T07:37:02.379Z,63.13
2018-11-12T07:39:30.426Z,62.85
2018-11-12T07:41:58.619Z,62.58
2018-11-12T07:44:26.685Z,62.54
2018-11-12T07:46:54.790Z,62.40
2018-11-12T07:49:22.958Z,62.24
2018-11-12T07:51:51.043Z,61.67
2018-11-12T07:54:19.151Z,61.04
2018-11-12T07:56:47.189Z,60.76
2018-11-12T07:59:15.330Z,60.39
2018-11-12T08:01:43.568Z,60.75
2018-11-12T08:04:11.708Z,60.15
2018-11-12T08:06:40.088Z,59.78
2018-11-12T08:09:09.873Z,60.05
2018-11-12T08:11:37.885Z,59.02
2018-11-12T08:14:06.353Z,59.00
2018-11-12T08:16:34.723Z,58.55
2018-11-12T08:19:03.292Z,58.15
2018-11-12T08:21:31.888Z,57.80
2018-11-12T08:24:00.310Z,57.57
2018-11-12T08:26:28.634Z,56.88
2018-11-12T08:28:57.055Z,56.40
2018-11-12T08:31:25.107Z,56.28
2018-11-12T08:33:53.179Z,56.38
2018-11-12T08:36:21.291Z,56.19
2018-11-12T08:38:49.719Z,55.66
2018-11-12T08:41:17.803Z,55.42
2018-11-12T08:43:45.905Z,54.54
2018-11-12T08:46:14.088Z,54.48
2018-11-12T08:48:42.098Z,54.32
2018-11-12T08:51:10.127Z,53.64
2018-11-12T08:53:38.244Z,53.90
2018-11-12T08:56:06.313Z,53.56
2018-11-12T08:58:34.381Z,53.66
2018-11-12T09:01:02.500Z,53.29
2018-11-12T09:03:30.550Z,52.91
2018-11-12T09:05:58.693Z,52.27
2018-11-12T09:08:26.774Z,51.68
2018-11-12T09:10:54.876Z,51.10
2018-11-12T09:13:22.985Z,51.71
2018-11-12T09:15:51.166Z,51.93
2018-11-12T09:18:19.179Z,51.49
2018-11-12T09:20:50.596Z,51.95
2018-11-12T09:23:18.705Z,51.08
2018-11-12T09:25:46.793Z,51.72
2018-11-12T09:28:14.870Z,51.14
2018-11-12T09:30:44.140Z,51.03
2018-11-12T09:33:11.089Z,50.22
2018-11-12T09:35:39.142Z,50.01
2018-11-12T09:38:07.343Z,49.85
2018-11-12T09:40:36.831Z,49.21
2018-11-12T09:43:05.063Z,49.86
2018-11-12T09:45:33.499Z,49.93
2018-11-12T09:48:01.743Z,49.76
2018-11-12T09:50:30.254Z,48.94
2018-11-12T09:52:59.417Z,49.63
2018-11-12T09:55:28.656Z,49.45
2018-11-12T09:57:58.291Z,49.19
2018-11-12T10:00:26.527Z,49.03
2018-11-12T10:02:55.085Z,48.33
2018-11-12T10:05:23.895Z,48.72
2018-11-12T10:07:58.477Z,48.77
2018-11-12T10:10:33.093Z,48.71
2018-11-12T10:13:00.756Z,49.11
2018-11-12T10:15:30.140Z,48.41
2018-11-12T10:17:56.775Z,48.64
2018-11-12T10:20:22.884Z,48.05
2018-11-12T10:22:50.964Z,48.34
2018-11-12T10:25:19.978Z,48.51
2018-11-12T10:27:48.449Z,48.55
2018-11-12T10:30:16.635Z,48.85
2018-11-12T10:32:44.910Z,49.26
2018-11-12T10:35:13.049Z,48.63
2018-11-12T10:37:41.842Z,49.05
2018-11-12T10:40:14.854Z,49.13
2018-11-12T10:42:43.537Z,48.27
2018-11-12T10:45:11.549Z,48.72
2018-11-12T10:47:39.625Z,48.70
2018-11-12T10:50:07.777Z,48.60
2018-11-12T10:52:36.425Z,48.94
2018-11-12T10:55:05.629Z,49.21
2018-11-12T10:57:33.111Z,48.77
2018-11-12T11:00:01.157Z,48.80
2018-11-12T11:02:34.734Z,48.78
2018-11-12T11:05:02.789Z,49.10
2018-11-12T11:07:30.854Z,48.37
2018-11-12T11:09:59.013Z,48.48
2018-11-12T11:12:27.075Z,48.10
2018-11-12T11:14:55.201Z,48.21
2018-11-12T11:17:23.800Z,48.41
2018-11-12T11:19:51.955Z,48.21
2018-11-12T11:22:20.002Z,48.01
2018-11-12T11:24:48.101Z,47.62
2018-11-12T11:27:16.175Z,48.38
2018-11-12T11:29:44.262Z,47.14
2018-11-12T11:32:12.301Z,48.31
2018-11-12T11:34:40.381Z,48.75
2018-11-12T11:37:08.449Z,48.57
2018-11-12T11:39:36.544Z,48.70
2018-11-12T11:42:05.066Z,48.47
2018-11-12T11:44:33.452Z,48.00
2018-11-12T11:47:01.745Z,47.35
2018-11-12T11:49:30.231Z,47.83
2018-11-12T11:51:58.291Z,47.84
2018-11-12T11:54:26.821Z,48.34
2018-11-12T11:56:55.070Z,48.37
2018-11-12T11:59:23.132Z,48.05
2018-11-12T12:01:51.203Z,47.44
2018-11-12T12:04:19.297Z,47.19
2018-11-12T12:06:47.360Z,47.83
2018-11-12T12:09:15.558Z,46.95
2018-11-12T12:11:43.742Z,46.47
2018-11-12T12:14:11.813Z,46.95
2018-11-12T12:16:39.878Z,47.12
2018-11-12T12:19:08.385Z,46.88
2018-11-12T12:21:36.453Z,46.86
2018-11-12T12:24:04.568Z,46.17
2018-11-12T12:26:32.631Z,46.74
2018-11-12T12:29:00.777Z,46.26
2018-11-12T12:31:28.929Z,46.43
2018-11-12T12:33:57.013Z,46.18
2018-11-12T12:36:25.106Z,45.76
2018-11-12T12:38:53.176Z,46.30
2018-11-12T12:41:21.242Z,45.98
2018-11-12T12:43:49.325Z,46.06
2018-11-12T12:46:17.397Z,45.79
2018-11-12T12:48:45.442Z,45.98
2018-11-12T12:51:13.520Z,45.89
2018-11-12T12:53:41.584Z,45.80
2018-11-12T12:56:09.696Z,45.57
2018-11-12T12:58:37.715Z,46.00
2018-11-12T13:01:05.804Z,45.82
2018-11-12T13:03:33.910Z,45.78
2018-11-12T13:06:02.001Z,45.90
2018-11-12T13:08:30.057Z,45.73
2018-11-12T13:10:58.114Z,45.95
2018-11-12T13:13:26.177Z,46.38
2018-11-12T13:15:54.269Z,46.49
2018-11-12T13:18:22.321Z,46.67
2018-11-12T13:20:50.426Z,46.16
2018-11-12T13:23:18.507Z,45.72
2018-11-12T13:25:46.668Z,45.11
2018-11-12T13:28:14.747Z,45.32
2018-11-12T13:30:42.816Z,45.29
2018-11-12T13:33:10.884Z,44.98
2018-11-12T13:35:39.023Z,45.43
2018-11-12T13:38:07.098Z,45.70
2018-11-12T13:40:35.175Z,45.65
2018-11-12T13:43:03.236Z,45.51
2018-11-12T13:45:31.327Z,45.45
2018-11-12T13:48:00.221Z,44.98
2018-11-12T13:50:29.610Z,45.73
2018-11-12T13:52:58.413Z,45.28
2018-11-12T13:55:26.501Z,45.49
2018-11-12T13:57:54.585Z,45.60
2018-11-12T14:00:25.008Z,45.06
2018-11-12T14:02:53.766Z,45.03
2018-11-12T14:05:22.878Z,45.28
2018-11-12T14:07:50.985Z,45.12
2018-11-12T14:10:20.549Z,45.24
2018-11-12T14:12:49.325Z,44.82
2018-11-12T14:15:19.238Z,45.15
2018-11-12T14:17:47.819Z,44.78
2018-11-12T14:20:15.895Z,44.78
2018-11-12T14:22:43.923Z,44.48
2018-11-12T14:25:14.301Z,44.18
2018-11-12T14:27:42.424Z,44.48
2018-11-12T14:30:12.593Z,44.17
2018-11-12T14:32:40.702Z,43.86
2018-11-12T14:35:09.688Z,43.83
2018-11-12T14:37:37.749Z,43.50
2018-11-12T14:40:07.054Z,43.66
2018-11-12T14:42:35.174Z,43.66
2018-11-12T14:45:03.273Z,43.45
2018-11-12T14:47:31.357Z,43.09
2018-11-12T14:49:59.471Z,43.15
2018-11-12T14:52:27.517Z,42.96
2018-11-12T14:54:55.625Z,43.60
2018-11-12T14:57:23.655Z,43.18
2018-11-12T14:59:51.806Z,42.77
2018-11-12T15:02:19.884Z,42.76
2018-11-12T15:04:47.969Z,42.60
2018-11-12T15:07:16.038Z,42.44
2018-11-12T15:09:44.101Z,42.32
2018-11-12T15:12:12.191Z,42.07
2018-11-12T15:14:40.312Z,42.58
2018-11-12T15:17:08.306Z,43.14
2018-11-12T15:19:36.412Z,43.01
2018-11-12T15:22:04.688Z,42.97
2018-11-12T15:24:33.457Z,42.67
2018-11-12T15:27:01.512Z,42.07
2018-11-12T15:29:29.712Z,42.14
2018-11-12T15:31:57.753Z,42.85
2018-11-12T15:34:25.874Z,42.89
2018-11-12T15:36:54.076Z,43.04
2018-11-12T15:39:21.977Z,42.86
2018-11-12T15:41:50.074Z,43.29
2018-11-12T15:44:18.333Z,43.46
2018-11-12T15:46:46.406Z,43.56
2018-11-12T15:49:14.517Z,43.86
2018-11-12T15:51:42.616Z,44.01
2018-11-12T15:54:10.690Z,44.20
2018-11-12T15:56:38.780Z,44.21
2018-11-12T15:59:06.860Z,43.89
2018-11-12T16:01:34.938Z,44.20
2018-11-12T16:04:03.010Z,44.17
2018-11-12T16:06:31.435Z,44.52
2018-11-12T16:08:59.494Z,44.50
2018-11-12T16:11:27.571Z,44.72
2018-11-12T16:13:55.648Z,44.52
2018-11-12T16:16:23.700Z,44.73
2018-11-12T16:18:51.762Z,44.66
2018-11-12T16:21:19.849Z,44.83
2018-11-12T16:23:47.913Z,45.05
2018-11-12T16:26:16.218Z,45.47
2018-11-12T16:28:44.271Z,45.56
2018-11-12T16:31:12.355Z,45.63
2018-11-12T16:33:40.425Z,45.99
2018-11-12T16:36:08.562Z,46.06
2018-11-12T16:38:36.640Z,46.31
2018-11-12T16:41:04.724Z,46.63
2018-11-12T16:43:32.784Z,46.88
2018-11-12T16:46:00.874Z,46.71
2018-11-12T16:48:28.965Z,47.26
2018-11-12T16:50:57.068Z,47.48
2018-11-12T16:53:25.159Z,47.59
2018-11-12T16:55:53.228Z,47.33
2018-11-12T16:58:21.351Z,47.99
2018-11-12T17:00:49.420Z,48.45
2018-11-12T17:03:17.533Z,48.29
2018-11-12T17:05:45.606Z,48.82
2018-11-12T17:08:13.673Z,48.71
2018-11-12T17:10:41.773Z,48.80
2018-11-12T17:13:09.857Z,49.19
2018-11-12T17:15:37.958Z,49.21
2018-11-12T17:18:06.067Z,49.73
2018-11-12T17:20:34.161Z,49.39
2018-11-12T17:23:02.267Z,49.34
2018-11-12T17:25:30.343Z,49.36
2018-11-12T17:27:58.420Z,49.58
2018-11-12T17:30:26.506Z,49.89
2018-11-12T17:32:54.589Z,50.19
2018-11-12T17:35:23.433Z,50.61
2018-11-12T17:37:51.920Z,50.68
2018-11-12T17:40:23.599Z,50.60
2018-11-12T17:42:52.358Z,50.59
2018-11-12T17:45:22.785Z,50.93
2018-11-12T17:47:51.989Z,50.92
2018-11-12T17:50:20.060Z,50.75
2018-11-12T17:52:48.191Z,50.83
2018-11-12T17:55:16.261Z,51.03
2018-11-12T17:57:44.336Z,51.17
2018-11-12T18:00:19.096Z,51.60
2018-11-12T18:02:47.800Z,51.58
2018-11-12T18:05:15.878Z,52.04
2018-11-12T18:07:44.189Z,51.87
2018-11-12T18:10:13.363Z,51.96
2018-11-12T18:12:41.487Z,52.47
2018-11-12T18:15:12.198Z,53.03
2018-11-12T18:17:40.310Z,52.55
2018-11-12T18:20:10.838Z,53.02
2018-11-12T18:22:39.235Z,52.97
2018-11-12T18:25:07.382Z,52.54
2018-11-12T18:27:35.989Z,52.66
2018-11-12T18:30:04.978Z,52.59
2018-11-12T18:32:32.903Z,52.57
2018-11-12T18:35:00.988Z,52.62
2018-11-12T18:37:29.090Z,53.20
2018-11-12T18:39:57.177Z,52.63
2018-11-12T18:42:25.248Z,53.04
2018-11-12T18:44:53.327Z,52.63
2018-11-12T18:47:22.131Z,53.04
2018-11-12T18:49:50.238Z,53.02
2018-11-12T18:52:18.336Z,53.45
2018-11-12T18:54:46.360Z,53.28
2018-11-12T18:57:14.448Z,53.41
2018-11-12T18:59:42.569Z,53.52
2018-11-12T19:02:10.655Z,53.62
2018-11-12T19:04:38.714Z,53.81
2018-11-12T19:07:06.817Z,53.87
2018-11-12T19:09:34.889Z,54.21
2018-11-12T19:12:02.983Z,54.27
2018-11-12T19:14:31.096Z,54.34
2018-11-12T19:16:59.178Z,54.42
2018-11-12T19:19:27.429Z,54.84
2018-11-12T19:21:55.457Z,54.90
2018-11-12T19:24:23.575Z,54.89
2018-11-12T19:26:51.651Z,54.81
2018-11-12T19:29:19.757Z,54.98
2018-11-12T19:31:47.835Z,54.98
2018-11-12T19:34:16.055Z,54.97
2018-11-12T19:36:44.133Z,54.73
2018-11-12T19:39:12.220Z,54.78
2018-11-12T19:41:40.385Z,55.08
2018-11-12T19:44:08.465Z,55.23
2018-11-12T19:46:36.535Z,55.45
2018-11-12T19:49:04.728Z,55.12
2018-11-12T19:51:32.842Z,55.20
2018-11-12T19:54:00.868Z,55.04
2018-11-12T19:56:28.928Z,55.06
2018-11-12T19:58:57.061Z,55.18
2018-11-12T20:01:25.133Z,55.15
2018-11-12T20:03:53.204Z,54.94
2018-11-12T20:06:21.255Z,54.91
2018-11-12T20:08:49.425Z,55.26
2018-11-12T20:11:17.513Z,55.08
2018-11-12T20:13:45.601Z,55.27
2018-11-12T20:16:13.687Z,55.22
2018-11-12T20:18:41.759Z,55.22
2018-11-12T20:21:09.857Z,55.19
2018-11-12T20:23:37.992Z,55.10
2018-11-12T20:26:06.165Z,55.09
2018-11-12T20:28:34.260Z,55.09
2018-11-12T20:31:02.333Z,55.17
2018-11-12T20:33:30.429Z,55.34
2018-11-12T20:35:58.494Z,55.41
2018-11-12T20:38:26.589Z,55.39
2018-11-12T20:40:54.656Z,55.33
2018-11-12T20:43:22.721Z,55.38
2018-11-12T20:45:50.794Z,55.45
2018-11-12T20:48:18.939Z,55.62
2018-11-12T20:50:46.944Z,55.43
2018-11-12T20:53:15.017Z,55.67
2018-11-12T20:55:43.242Z,55.68
2018-11-12T20:58:11.506Z,55.67
2018-11-12T21:00:39.714Z,55.51
2018-11-12T21:03:07.901Z,55.64
2018-11-12T21:05:35.989Z,55.72
2018-11-12T21:08:04.153Z,56.04
2018-11-12T21:10:32.230Z,55.83
2018-11-12T21:13:00.305Z,56.05
2018-11-12T21:15:28.505Z,56.08
2018-11-12T21:17:56.678Z,56.44
2018-11-12T21:20:25.988Z,56.63
2018-11-12T21:22:54.749Z,56.90
2018-11-12T21:25:24.059Z,56.65
2018-11-12T21:27:52.193Z,57.14
2018-11-12T21:30:22.558Z,57.28
2018-11-12T21:32:50.698Z,57.18
2018-11-12T21:35:19.098Z,57.36
2018-11-12T21:37:47.896Z,57.66
2018-11-12T21:40:17.292Z,57.57
2018-11-12T21:42:45.371Z,57.84
2018-11-12T21:45:14.809Z,57.37
2018-11-12T21:47:43.464Z,57.63
2018-11-12T21:50:13.816Z,57.46
2018-11-12T21:52:41.995Z,58.12
2018-11-12T21:55:11.036Z,58.10
2018-11-12T21:57:39.651Z,57.90
2018-11-12T22:00:12.543Z,58.24
2018-11-12T22:02:40.745Z,58.29
2018-11-12T22:05:09.015Z,58.42
2018-11-12T22:07:37.173Z,58.36
2018-11-12T22:10:07.264Z,58.05
2018-11-12T22:12:35.423Z,58.35
2018-11-12T22:15:03.552Z,58.35
2018-11-12T22:17:31.691Z,58.32
2018-11-12T22:19:59.817Z,58.50
2018-11-12T22:22:27.796Z,58.16
2018-11-12T22:24:55.898Z,58.07
2018-11-12T22:27:24.006Z,58.17
2018-11-12T22:29:52.052Z,58.28
2018-11-12T22:32:20.097Z,58.40
2018-11-12T22:34:48.214Z,58.18
2018-11-12T22:37:16.323Z,58.12
2018-11-12T22:39:44.339Z,57.79
2018-11-12T22:42:12.430Z,58.00
2018-11-12T22:44:40.543Z,57.89
2018-11-12T22:47:08.657Z,58.41
2018-11-12T22:49:36.781Z,57.97
2018-11-12T22:52:05.432Z,58.01
2018-11-12T22:54:33.515Z,58.01
2018-11-12T22:57:01.648Z,58.06
2018-11-12T22:59:29.734Z,57.59
2018-11-12T23:01:57.858Z,57.50
2018-11-12T23:04:25.953Z,57.49
2018-11-12T23:06:54.016Z,57.57
2018-11-12T23:09:22.161Z,57.33
2018-11-12T23:11:50.256Z,57.51
2018-11-12T23:14:18.345Z,57.59
2018-11-12T23:16:46.403Z,57.62
2018-11-12T23:19:14.453Z,57.79
2018-11-12T23:21:42.517Z,57.98
2018-11-12T23:24:10.717Z,57.79
2018-11-12T23:26:39.210Z,57.78
2018-11-12T23:29:07.397Z,57.79
2018-11-12T23:31:35.623Z,57.63
2018-11-12T23:34:03.686Z,57.65
2018-11-12T23:36:31.769Z,57.59
2018-11-12T23:38:59.830Z,57.51
2018-11-12T23:41:27.980Z,57.77
2018-11-12T23:43:56.068Z,57.99
2018-11-12T23:46:24.128Z,58.20
2018-11-12T23:48:52.326Z,57.90
2018-11-12T23:51:20.378Z,58.28
2018-11-12T23:53:48.468Z,58.29
2018-11-12T23:56:16.519Z,58.17
2018-11-12T23:58:44.657Z,58.22
